Terminal Aerodrome Forecast
Issued by NWS St Louis, MO

Home | Current Version | Previous Version | Text Only | Print | Product List | Glossary Off
Versions: 1 2 3 4 5 6 7 8 9 10 11 12 13 14 15 16 17 18 19 20 21

032
FTUS43 KLSX 231138
TAFCOU
TAF
KCOU 231138Z 2312/2412 31008KT P6SM OVC010
      TEMPO 2312/2315 OVC008
     FM232100 30006KT P6SM OVC025
     FM232300 VRB03KT P6SM SCT140
     FM241000 13007KT P6SM SCT200=

USA.gov is the U.S. government's official web portal to all federal, state and local government web resources and services.